Puposky, Minnesota
Current Conditions -  °F | °C
As of 2:53 AM on Thursday 23 Oct 2014 (Local Time) from KBJI Reporting Station
Clear Clear  
Wind Chill: 47°   Ceiling: Unl
Heat Index: 49°   Visibility: 7mi
Dew Point: 48°   Wind: 6mph
Humidity: 97%   Direction: 170°S
Pressure: 29.9"   Gusts: NA
Location:  47.68°N, 94.89°W
Report Text: KBJI 230753Z AUTO 17005KT 7SM CLR 10/09 A2990 RMK AO2 T00950090
Loading
Personal Weather Stations






























Interactive Weather Map
Tropical Storm Tracking
New forecast layout! Learn more

10-Day Weather Forecast

Advertisements
Track Severe Weather on mobile